GMT,Max TemperatureF,Mean TemperatureF,Min TemperatureF,Max Dew PointF,MeanDew PointF,Min DewpointF,Max Humidity, Mean Humidity, Min Humidity, Max Sea Level PressureIn, Mean Sea Level PressureIn, Min Sea Level PressureIn, Max VisibilityMiles, Mean VisibilityMiles, Min VisibilityMiles, Max Wind SpeedMPH, Mean Wind SpeedMPH, Max Gust SpeedMPH,PrecipitationIn, CloudCover, Events, WindDirDegrees
2012-11-1,48,42,37,41,38,34,100,81,58,28.88,28.82,28.77,6,6,5,29,11,36,0.08,3,Rain,254
2012-11-2,49,46,41,43,41,38,93,79,63,29.24,29.08,29.00,6,6,5,32,23,40,0.20,4,Rain,254
2012-11-3,48,42,37,41,37,34,100,81,49,29.36,29.31,29.24,6,6,4,22,13,22,0.12,4,Rain,212
2012-11-4,46,39,32,39,36,30,100,88,66,29.53,29.38,29.33,6,6,6,14,9,,0.00,1,,89
2012-11-5,48,42,35,43,38,29,95,81,61,29.98,29.82,29.68,6,6,6,10,6,,0.01,1,,339
2012-11-6,51,42,32,50,47,30,100,88,71,30.15,30.08,30.04,6,6,3,21,14,,0.03,5,Rain,289
2012-11-7,51,50,49,50,46,43,94,83,70,30.18,30.13,30.04,6,6,4,26,20,,0.01,6,Rain,251
2012-11-8,51,50,47,48,46,40,94,83,69,30.04,30.00,29.95,6,6,6,22,16,,0.00,5,Rain,273
2012-11-9,49,48,46,48,46,41,100,92,78,29.74,29.59,29.47,6,6,4,21,13,,0.02,4,Rain,197
2012-11-10,48,44,41,45,42,39,100,88,69,29.44,29.38,29.36,6,6,6,14,9,,0.01,2,Rain,208
2012-11-11,51,48,46,46,44,41,93,83,69,30.01,29.89,29.71,6,6,6,13,9,,0.02,2,Rain,289
2012-11-12,52,48,44,52,48,42,100,98,86,30.04,29.97,29.95,6,5,1,18,12,,0.16,6,Rain,175
2012-11-13,54,54,53,54,50,47,100,86,72,30.18,30.15,30.09,6,6,6,16,13,,0.00,6,Rain,193
2012-11-14,53,52,50,50,48,45,94,85,69,30.27,30.26,30.24,6,6,6,14,10,,0.00,6,,186
2012-11-15,52,47,40,50,46,39,100,93,76,30.21,30.14,30.09,6,4,3,12,7,,0.00,5,,163
2012-11-16,45,43,41,44,42,39,100,91,75,29.98,29.89,29.77,4,4,4,12,8,,0.08,5,Rain,150
2012-11-17,48,46,44,46,42,37,100,81,63,29.77,29.73,29.68,6,6,6,17,10,,0.01,3,Rain,287
2012-11-18,46,44,42,41,39,36,93,77,60,29.92,29.88,29.83,6,6,6,21,13,,0.08,2,Rain,207
2012-11-19,51,48,44,50,46,39,100,88,69,29.62,29.56,29.50,6,6,6,25,21,34,0.02,5,Rain,171
2012-11-20,56,52,48,55,50,44,100,90,72,29.68,29.54,29.47,6,6,4,21,14,,0.08,3,Rain,186
2012-11-21,47,44,42,46,42,39,100,89,79,29.80,29.74,29.71,6,6,4,17,7,,0.12,3,Rain,180
2012-11-22,53,49,44,50,46,40,94,89,77,29.62,29.48,29.36,6,5,2,29,21,40,0.59,5,Rain,182
2012-11-23,48,46,45,43,41,38,87,78,67,29.89,29.78,29.65,6,6,6,22,17,,0.01,2,Rain,230
2012-11-24,43,38,33,42,38,33,100,92,77,29.98,29.85,29.56,6,5,4,16,8,,0.04,2,Fog-Rain,92
2012-11-25,46,42,39,45,40,36,100,84,69,29.59,29.54,29.39,6,6,4,25,15,33,0.08,4,Rain,312
2012-11-26,46,44,42,43,41,39,100,88,73,29.65,29.55,29.47,6,6,2,18,13,,0.20,5,Rain,12
2012-11-27,47,44,42,41,39,35,87,77,63,30.01,29.90,29.74,6,6,6,17,13,,0.00,4,Rain,10
2012-11-28,42,38,33,34,31,27,81,68,52,30.09,30.07,30.04,6,6,6,14,10,,0.00,1,,4
2012-11-29,39,34,29,34,29,25,93,85,66,30.01,29.94,29.86,6,6,6,7,3,,0.00,1,,105
2012-11-30,38,32,26,37,31,25,100,94,84,29.95,29.90,29.83,6,6,5,5,3,,0.01,1,Fog,110